sensor_id;sensor_type;location;lat;lon;timestamp;pressure;altitude;pressure_sealevel;temperature;humidity
41703;BME280;861;48.808;9.006;2023-07-13T00:02:04;97092.06;;;21.96;57.74
41703;BME280;861;48.808;9.006;2023-07-13T00:04:31;97096.63;;;21.81;58.07
41703;BME280;861;48.808;9.006;2023-07-13T00:06:57;97100.50;;;21.53;57.70
41703;BME280;861;48.808;9.006;2023-07-13T00:09:24;97102.91;;;21.42;58.32
41703;BME280;861;48.808;9.006;2023-07-13T00:11:55;97095.19;;;21.37;58.33
41703;BME280;861;48.808;9.006;2023-07-13T00:14:26;97091.91;;;21.30;58.45
41703;BME280;861;48.808;9.006;2023-07-13T00:16:55;97085.69;;;21.16;58.75
41703;BME280;861;48.808;9.006;2023-07-13T00:19:22;97073.41;;;21.17;57.99
41703;BME280;861;48.808;9.006;2023-07-13T00:21:49;97071.38;;;21.18;57.79
41703;BME280;861;48.808;9.006;2023-07-13T00:24:18;97079.44;;;21.25;57.88
41703;BME280;861;48.808;9.006;2023-07-13T00:26:49;97073.09;;;21.15;57.57
41703;BME280;861;48.808;9.006;2023-07-13T00:29:16;97073.53;;;21.14;58.24
41703;BME280;861;48.808;9.006;2023-07-13T00:31:42;97069.63;;;21.33;55.95
41703;BME280;861;48.808;9.006;2023-07-13T00:34:10;97071.25;;;21.21;56.13
41703;BME280;861;48.808;9.006;2023-07-13T00:36:36;97066.31;;;21.16;56.45
41703;BME280;861;48.808;9.006;2023-07-13T00:39:04;97062.78;;;21.16;55.89
41703;BME280;861;48.808;9.006;2023-07-13T00:41:32;97066.72;;;21.37;54.42
41703;BME280;861;48.808;9.006;2023-07-13T00:43:59;97046.00;;;21.19;55.87
41703;BME280;861;48.808;9.006;2023-07-13T00:46:29;97059.38;;;21.12;55.31
41703;BME280;861;48.808;9.006;2023-07-13T00:49:09;97058.00;;;20.95;55.99
41703;BME280;861;48.808;9.006;2023-07-13T00:51:58;97054.69;;;21.00;55.76
41703;BME280;861;48.808;9.006;2023-07-13T00:54:38;97065.22;;;21.14;55.53
41703;BME280;861;48.808;9.006;2023-07-13T00:57:17;97059.91;;;20.98;55.25
41703;BME280;861;48.808;9.006;2023-07-13T00:59:54;97066.41;;;20.82;55.97
41703;BME280;861;48.808;9.006;2023-07-13T01:02:38;97063.00;;;20.78;56.46
41703;BME280;861;48.808;9.006;2023-07-13T01:05:15;97076.97;;;20.75;57.54
41703;BME280;861;48.808;9.006;2023-07-13T01:07:45;97079.22;;;20.67;56.97
41703;BME280;861;48.808;9.006;2023-07-13T01:10:15;97072.25;;;20.84;56.25
41703;BME280;861;48.808;9.006;2023-07-13T01:12:42;97083.00;;;20.82;56.93
41703;BME280;861;48.808;9.006;2023-07-13T01:15:44;97074.38;;;20.80;56.49
41703;BME280;861;48.808;9.006;2023-07-13T01:18:26;97074.13;;;20.66;56.24
41703;BME280;861;48.808;9.006;2023-07-13T01:20:56;97080.25;;;20.61;56.79
41703;BME280;861;48.808;9.006;2023-07-13T01:23:27;97072.19;;;20.54;57.36
41703;BME280;861;48.808;9.006;2023-07-13T01:25:56;97075.28;;;20.56;57.14
41703;BME280;861;48.808;9.006;2023-07-13T01:28:25;97077.41;;;20.52;57.48
41703;BME280;861;48.808;9.006;2023-07-13T01:30:58;97084.59;;;20.49;57.70
41703;BME280;861;48.808;9.006;2023-07-13T01:33:26;97087.13;;;20.56;57.51
41703;BME280;861;48.808;9.006;2023-07-13T01:38:25;97077.41;;;20.73;57.39
41703;BME280;861;48.808;9.006;2023-07-13T01:40:53;97084.81;;;20.76;57.39
41703;BME280;861;48.808;9.006;2023-07-13T01:43:20;97085.44;;;20.80;56.93
41703;BME280;861;48.808;9.006;2023-07-13T01:45:47;97085.38;;;20.71;57.00
41703;BME280;861;48.808;9.006;2023-07-13T01:48:15;97092.53;;;20.81;57.37
41703;BME280;861;48.808;9.006;2023-07-13T01:50:42;97084.09;;;20.85;57.38
41703;BME280;861;48.808;9.006;2023-07-13T01:53:10;97083.28;;;20.97;56.73
41703;BME280;861;48.808;9.006;2023-07-13T01:55:37;97078.50;;;20.97;56.00
41703;BME280;861;48.808;9.006;2023-07-13T01:58:05;97084.69;;;21.01;56.28
41703;BME280;861;48.808;9.006;2023-07-13T02:00:32;97085.47;;;21.02;56.55
41703;BME280;861;48.808;9.006;2023-07-13T02:02:59;97086.47;;;20.95;56.75
41703;BME280;861;48.808;9.006;2023-07-13T02:05:26;97092.41;;;20.85;56.81
41703;BME280;861;48.808;9.006;2023-07-13T02:07:52;97097.09;;;20.75;57.29
41703;BME280;861;48.808;9.006;2023-07-13T02:10:19;97091.50;;;20.66;56.99
41703;BME280;861;48.808;9.006;2023-07-13T02:12:48;97098.78;;;20.73;57.24
41703;BME280;861;48.808;9.006;2023-07-13T02:15:15;97098.28;;;20.65;57.13
41703;BME280;861;48.808;9.006;2023-07-13T02:17:41;97101.03;;;20.65;57.47
41703;BME280;861;48.808;9.006;2023-07-13T02:20:08;97104.03;;;20.58;56.79
41703;BME280;861;48.808;9.006;2023-07-13T02:22:36;97109.97;;;20.48;57.04
41703;BME280;861;48.808;9.006;2023-07-13T02:25:02;97102.63;;;20.54;57.46
41703;BME280;861;48.808;9.006;2023-07-13T02:27:29;97100.88;;;20.47;57.71
41703;BME280;861;48.808;9.006;2023-07-13T02:29:55;97100.94;;;20.35;58.25
41703;BME280;861;48.808;9.006;2023-07-13T02:32:22;97102.28;;;20.30;58.31
41703;BME280;861;48.808;9.006;2023-07-13T02:34:51;97106.06;;;20.11;59.08
41703;BME280;861;48.808;9.006;2023-07-13T02:37:19;97108.63;;;20.06;58.75
41703;BME280;861;48.808;9.006;2023-07-13T02:39:45;97105.84;;;20.06;59.20
41703;BME280;861;48.808;9.006;2023-07-13T02:42:12;97103.44;;;19.95;59.70
41703;BME280;861;48.808;9.006;2023-07-13T02:44:38;97110.97;;;19.95;59.43
41703;BME280;861;48.808;9.006;2023-07-13T02:47:05;97111.75;;;19.83;59.75
41703;BME280;861;48.808;9.006;2023-07-13T02:49:32;97110.22;;;19.82;60.09
41703;BME280;861;48.808;9.006;2023-07-13T02:51:58;97112.53;;;19.70;60.39
41703;BME280;861;48.808;9.006;2023-07-13T02:54:26;97103.03;;;19.71;60.45
41703;BME280;861;48.808;9.006;2023-07-13T02:56:52;97118.13;;;20.05;60.34
41703;BME280;861;48.808;9.006;2023-07-13T02:59:19;97110.47;;;20.34;60.32
41703;BME280;861;48.808;9.006;2023-07-13T03:01:45;97121.41;;;20.37;59.66
41703;BME280;861;48.808;9.006;2023-07-13T03:04:12;97115.50;;;20.48;59.65
41703;BME280;861;48.808;9.006;2023-07-13T03:06:38;97117.19;;;20.45;59.12
41703;BME280;861;48.808;9.006;2023-07-13T03:09:05;97116.72;;;20.47;58.95
41703;BME280;861;48.808;9.006;2023-07-13T03:11:32;97117.28;;;20.42;59.06
41703;BME280;861;48.808;9.006;2023-07-13T03:13:59;97123.06;;;20.35;58.98
41703;BME280;861;48.808;9.006;2023-07-13T03:16:25;97123.06;;;20.35;59.97
41703;BME280;861;48.808;9.006;2023-07-13T03:18:52;97126.72;;;20.32;59.64
41703;BME280;861;48.808;9.006;2023-07-13T03:21:18;97130.38;;;20.29;59.92
41703;BME280;861;48.808;9.006;2023-07-13T03:23:46;97131.28;;;20.26;59.61
41703;BME280;861;48.808;9.006;2023-07-13T03:26:17;97139.56;;;20.26;60.04
41703;BME280;861;48.808;9.006;2023-07-13T03:28:46;97143.88;;;20.27;59.67
41703;BME280;861;48.808;9.006;2023-07-13T03:31:18;97138.34;;;20.27;59.26
41703;BME280;861;48.808;9.006;2023-07-13T03:33:48;97147.97;;;20.22;58.46
41703;BME280;861;48.808;9.006;2023-07-13T03:36:22;97150.75;;;20.22;59.12
41703;BME280;861;48.808;9.006;2023-07-13T03:38:57;97155.84;;;20.24;59.09
41703;BME280;861;48.808;9.006;2023-07-13T03:41:26;97150.63;;;20.26;59.00
41703;BME280;861;48.808;9.006;2023-07-13T03:43:53;97155.38;;;20.25;58.83
41703;BME280;861;48.808;9.006;2023-07-13T03:46:20;97168.13;;;20.23;59.21
41703;BME280;861;48.808;9.006;2023-07-13T03:48:48;97167.00;;;20.20;59.47
41703;BME280;861;48.808;9.006;2023-07-13T03:51:16;97157.94;;;20.20;60.00
41703;BME280;861;48.808;9.006;2023-07-13T03:53:47;97173.44;;;20.17;60.77
41703;BME280;861;48.808;9.006;2023-07-13T03:56:16;97179.19;;;20.10;60.13
41703;BME280;861;48.808;9.006;2023-07-13T03:58:48;97178.72;;;20.12;62.13
41703;BME280;861;48.808;9.006;2023-07-13T04:01:19;97173.31;;;20.08;61.17
41703;BME280;861;48.808;9.006;2023-07-13T04:03:47;97178.66;;;20.15;60.42
41703;BME280;861;48.808;9.006;2023-07-13T04:06:28;97176.97;;;20.05;61.78
41703;BME280;861;48.808;9.006;2023-07-13T04:08:59;97178.75;;;19.99;61.63
41703;BME280;861;48.808;9.006;2023-07-13T04:11:30;97180.97;;;19.92;61.81
41703;BME280;861;48.808;9.006;2023-07-13T04:13:58;97172.53;;;19.95;62.30
41703;BME280;861;48.808;9.006;2023-07-13T04:16:25;97186.69;;;19.97;62.49
41703;BME280;861;48.808;9.006;2023-07-13T04:18:52;97177.06;;;19.89;61.56
41703;BME280;861;48.808;9.006;2023-07-13T04:21:21;97184.03;;;19.81;63.04
41703;BME280;861;48.808;9.006;2023-07-13T04:23:48;97184.16;;;19.90;62.51
41703;BME280;861;48.808;9.006;2023-07-13T04:26:15;97186.03;;;19.93;62.33
41703;BME280;861;48.808;9.006;2023-07-13T04:28:41;97186.81;;;19.94;62.10
41703;BME280;861;48.808;9.006;2023-07-13T04:31:08;97190.16;;;19.89;61.65
41703;BME280;861;48.808;9.006;2023-07-13T04:33:34;97184.94;;;19.91;62.37
41703;BME280;861;48.808;9.006;2023-07-13T04:36:01;97189.25;;;19.92;62.72
41703;BME280;861;48.808;9.006;2023-07-13T04:38:31;97183.72;;;19.92;62.33
41703;BME280;861;48.808;9.006;2023-07-13T04:41:05;97183.38;;;19.90;62.04
41703;BME280;861;48.808;9.006;2023-07-13T04:43:34;97178.84;;;19.70;62.57
41703;BME280;861;48.808;9.006;2023-07-13T04:46:11;97186.34;;;19.70;62.76
41703;BME280;861;48.808;9.006;2023-07-13T04:48:40;97184.47;;;19.67;63.70
41703;BME280;861;48.808;9.006;2023-07-13T04:51:07;97198.28;;;19.67;63.84
41703;BME280;861;48.808;9.006;2023-07-13T04:53:34;97194.88;;;19.75;63.29
41703;BME280;861;48.808;9.006;2023-07-13T04:56:03;97202.50;;;19.84;63.54
41703;BME280;861;48.808;9.006;2023-07-13T04:58:31;97206.59;;;19.79;63.48
41703;BME280;861;48.808;9.006;2023-07-13T05:01:05;97204.16;;;19.82;64.67
41703;BME280;861;48.808;9.006;2023-07-13T05:03:33;97199.19;;;19.76;64.45
41703;BME280;861;48.808;9.006;2023-07-13T05:06:07;97198.63;;;19.82;63.98
41703;BME280;861;48.808;9.006;2023-07-13T05:08:38;97208.16;;;19.81;63.52
41703;BME280;861;48.808;9.006;2023-07-13T05:11:05;97216.44;;;19.81;63.94
41703;BME280;861;48.808;9.006;2023-07-13T05:13:33;97195.22;;;19.77;64.86
41703;BME280;861;48.808;9.006;2023-07-13T05:16:03;97211.56;;;19.85;64.52
41703;BME280;861;48.808;9.006;2023-07-13T05:18:32;97209.34;;;19.92;63.95
41703;BME280;861;48.808;9.006;2023-07-13T05:21:11;97212.25;;;20.01;63.92
41703;BME280;861;48.808;9.006;2023-07-13T05:23:38;97224.19;;;20.11;64.55
41703;BME280;861;48.808;9.006;2023-07-13T05:26:05;97218.91;;;20.16;64.24
41703;BME280;861;48.808;9.006;2023-07-13T05:28:32;97209.59;;;20.10;64.75
41703;BME280;861;48.808;9.006;2023-07-13T05:30:59;97217.00;;;20.13;64.41
41703;BME280;861;48.808;9.006;2023-07-13T05:33:27;97216.66;;;20.11;64.50
41703;BME280;861;48.808;9.006;2023-07-13T05:35:53;97211.03;;;20.15;65.27
41703;BME280;861;48.808;9.006;2023-07-13T05:38:20;97206.31;;;20.15;65.69
41703;BME280;861;48.808;9.006;2023-07-13T05:40:47;97208.47;;;20.20;65.25
41703;BME280;861;48.808;9.006;2023-07-13T05:43:16;97212.00;;;20.33;64.70
41703;BME280;861;48.808;9.006;2023-07-13T05:45:43;97218.78;;;20.32;64.34
41703;BME280;861;48.808;9.006;2023-07-13T05:48:09;97218.22;;;20.37;64.91
41703;BME280;861;48.808;9.006;2023-07-13T05:50:36;97224.50;;;20.38;64.79
41703;BME280;861;48.808;9.006;2023-07-13T05:53:03;97227.16;;;20.41;64.62
41703;BME280;861;48.808;9.006;2023-07-13T05:55:29;97222.19;;;20.36;65.65
41703;BME280;861;48.808;9.006;2023-07-13T05:57:56;97218.84;;;20.54;64.74
41703;BME280;861;48.808;9.006;2023-07-13T06:00:25;97225.78;;;20.58;64.61
41703;BME280;861;48.808;9.006;2023-07-13T06:02:52;97231.84;;;20.66;64.61
41703;BME280;861;48.808;9.006;2023-07-13T06:05:19;97227.56;;;20.65;63.47
41703;BME280;861;48.808;9.006;2023-07-13T06:07:46;97233.88;;;20.65;62.58
41703;BME280;861;48.808;9.006;2023-07-13T06:10:12;97234.44;;;20.60;63.45
41703;BME280;861;48.808;9.006;2023-07-13T06:12:39;97241.50;;;20.61;61.48
41703;BME280;861;48.808;9.006;2023-07-13T06:15:06;97235.94;;;20.74;60.51
41703;BME280;861;48.808;9.006;2023-07-13T06:17:33;97240.94;;;20.66;61.49
41703;BME280;861;48.808;9.006;2023-07-13T06:20:00;97249.59;;;20.68;61.61
41703;BME280;861;48.808;9.006;2023-07-13T06:22:26;97241.06;;;20.63;61.89
41703;BME280;861;48.808;9.006;2023-07-13T06:24:53;97251.25;;;20.53;60.84
41703;BME280;861;48.808;9.006;2023-07-13T06:27:19;97254.47;;;20.52;61.15
41703;BME280;861;48.808;9.006;2023-07-13T06:29:46;97258.78;;;20.65;60.28
41703;BME280;861;48.808;9.006;2023-07-13T06:32:13;97257.41;;;20.82;61.13
41703;BME280;861;48.808;9.006;2023-07-13T06:34:39;97264.03;;;20.97;60.81
41703;BME280;861;48.808;9.006;2023-07-13T06:37:06;97261.88;;;21.14;59.87
41703;BME280;861;48.808;9.006;2023-07-13T06:39:33;97265.16;;;21.21;57.90
41703;BME280;861;48.808;9.006;2023-07-13T06:41:59;97269.38;;;21.48;55.83
41703;BME280;861;48.808;9.006;2023-07-13T06:44:26;97273.75;;;21.79;54.49
41703;BME280;861;48.808;9.006;2023-07-13T06:46:52;97270.25;;;21.66;53.95
41703;BME280;861;48.808;9.006;2023-07-13T06:49:19;97275.16;;;21.62;53.91
41703;BME280;861;48.808;9.006;2023-07-13T06:51:46;97283.47;;;21.62;54.22
41703;BME280;861;48.808;9.006;2023-07-13T06:54:13;97283.00;;;21.64;54.49
41703;BME280;861;48.808;9.006;2023-07-13T06:56:40;97278.56;;;21.66;54.70
41703;BME280;861;48.808;9.006;2023-07-13T06:59:06;97281.13;;;21.61;54.44
41703;BME280;861;48.808;9.006;2023-07-13T07:01:33;97284.91;;;21.67;53.90
41703;BME280;861;48.808;9.006;2023-07-13T07:03:59;97285.97;;;22.12;51.70
41703;BME280;861;48.808;9.006;2023-07-13T07:06:26;97282.66;;;22.05;52.34
41703;BME280;861;48.808;9.006;2023-07-13T07:08:53;97283.19;;;22.12;52.88
41703;BME280;861;48.808;9.006;2023-07-13T07:11:24;97292.28;;;22.22;52.56
41703;BME280;861;48.808;9.006;2023-07-13T07:13:53;97289.16;;;22.11;52.30
41703;BME280;861;48.808;9.006;2023-07-13T07:16:21;97285.25;;;22.30;51.67
41703;BME280;861;48.808;9.006;2023-07-13T07:18:48;97286.34;;;22.32;52.14
41703;BME280;861;48.808;9.006;2023-07-13T07:21:15;97291.50;;;22.52;51.72
41703;BME280;861;48.808;9.006;2023-07-13T07:23:43;97287.69;;;22.58;50.81
41703;BME280;861;48.808;9.006;2023-07-13T07:26:10;97279.84;;;22.66;50.47
41703;BME280;861;48.808;9.006;2023-07-13T07:28:38;97290.78;;;22.60;51.90
41703;BME280;861;48.808;9.006;2023-07-13T07:31:04;97288.97;;;22.76;51.26
41703;BME280;861;48.808;9.006;2023-07-13T07:33:32;97283.13;;;22.92;49.76
41703;BME280;861;48.808;9.006;2023-07-13T07:36:00;97270.03;;;23.01;50.59
41703;BME280;861;48.808;9.006;2023-07-13T07:38:28;97268.50;;;23.18;49.58
41703;BME280;861;48.808;9.006;2023-07-13T07:40:55;97274.84;;;23.28;48.81
41703;BME280;861;48.808;9.006;2023-07-13T07:43:21;97273.63;;;23.29;48.67
41703;BME280;861;48.808;9.006;2023-07-13T07:45:48;97269.91;;;23.41;48.68
41703;BME280;861;48.808;9.006;2023-07-13T07:48:14;97289.66;;;23.34;49.10
41703;BME280;861;48.808;9.006;2023-07-13T07:50:41;97271.78;;;23.35;49.38
41703;BME280;861;48.808;9.006;2023-07-13T07:53:08;97272.19;;;23.69;47.50
41703;BME280;861;48.808;9.006;2023-07-13T07:55:36;97274.34;;;23.65;48.15
41703;BME280;861;48.808;9.006;2023-07-13T07:58:04;97278.09;;;23.44;50.08
41703;BME280;861;48.808;9.006;2023-07-13T08:00:32;97286.69;;;23.73;47.34
41703;BME280;861;48.808;9.006;2023-07-13T08:02:59;97283.47;;;23.66;48.21
41703;BME280;861;48.808;9.006;2023-07-13T08:05:26;97289.19;;;23.80;48.33
41703;BME280;861;48.808;9.006;2023-07-13T08:07:53;97286.28;;;24.26;45.67
41703;BME280;861;48.808;9.006;2023-07-13T08:10:20;97291.88;;;24.17;46.45
41703;BME280;861;48.808;9.006;2023-07-13T08:12:47;97290.78;;;24.23;45.38
41703;BME280;861;48.808;9.006;2023-07-13T08:15:17;97288.22;;;24.10;45.73
41703;BME280;861;48.808;9.006;2023-07-13T08:17:44;97289.69;;;24.30;46.01
41703;BME280;861;48.808;9.006;2023-07-13T08:20:11;97282.91;;;24.54;44.83
41703;BME280;861;48.808;9.006;2023-07-13T08:22:37;97284.97;;;24.45;44.46
41703;BME280;861;48.808;9.006;2023-07-13T08:25:04;97292.47;;;24.30;46.48
41703;BME280;861;48.808;9.006;2023-07-13T08:27:31;97285.13;;;24.41;44.22
41703;BME280;861;48.808;9.006;2023-07-13T08:29:58;97296.41;;;23.96;45.98
41703;BME280;861;48.808;9.006;2023-07-13T08:32:25;97281.06;;;24.19;44.89
41703;BME280;861;48.808;9.006;2023-07-13T08:34:52;97284.66;;;24.10;46.79
41703;BME280;861;48.808;9.006;2023-07-13T08:37:19;97281.63;;;24.32;46.04
41703;BME280;861;48.808;9.006;2023-07-13T08:39:46;97274.72;;;24.18;46.36
41703;BME280;861;48.808;9.006;2023-07-13T08:48:01;97280.50;;;24.47;44.75
41703;BME280;861;48.808;9.006;2023-07-13T08:51:12;97288.00;;;24.88;44.67
41703;BME280;861;48.808;9.006;2023-07-13T08:54:50;97289.19;;;24.96;43.89
41703;BME280;861;48.808;9.006;2023-07-13T08:57:13;97294.47;;;24.71;43.95
41703;BME280;861;48.808;9.006;2023-07-13T08:59:42;97285.94;;;24.74;44.52
41703;BME280;861;48.808;9.006;2023-07-13T09:05:22;97289.81;;;24.68;43.99
41703;BME280;861;48.808;9.006;2023-07-13T09:10:53;97289.97;;;24.73;42.51
41703;BME280;861;48.808;9.006;2023-07-13T09:13:43;97294.06;;;24.87;42.64
41703;BME280;861;48.808;9.006;2023-07-13T09:16:13;97295.69;;;25.02;44.32
41703;BME280;861;48.808;9.006;2023-07-13T09:18:47;97291.53;;;25.59;41.88
41703;BME280;861;48.808;9.006;2023-07-13T09:21:34;97294.00;;;25.43;41.42
41703;BME280;861;48.808;9.006;2023-07-13T09:27:19;97290.63;;;24.92;42.74
41703;BME280;861;48.808;9.006;2023-07-13T09:30:30;97292.56;;;25.24;43.95
41703;BME280;861;48.808;9.006;2023-07-13T09:33:04;97299.75;;;25.16;43.76
41703;BME280;861;48.808;9.006;2023-07-13T09:35:31;97295.53;;;25.20;44.41
41703;BME280;861;48.808;9.006;2023-07-13T09:38:11;97287.94;;;25.44;43.26
41703;BME280;861;48.808;9.006;2023-07-13T09:41:33;97284.72;;;25.61;41.18
41703;BME280;861;48.808;9.006;2023-07-13T09:46:54;97289.19;;;26.25;42.02
41703;BME280;861;48.808;9.006;2023-07-13T09:49:28;97288.03;;;26.66;40.21
41703;BME280;861;48.808;9.006;2023-07-13T09:52:07;97287.78;;;26.50;42.37
41703;BME280;861;48.808;9.006;2023-07-13T09:54:38;97287.00;;;26.64;42.13
41703;BME280;861;48.808;9.006;2023-07-13T09:57:16;97291.78;;;26.63;41.42
41703;BME280;861;48.808;9.006;2023-07-13T09:59:51;97287.47;;;26.77;41.37
41703;BME280;861;48.808;9.006;2023-07-13T10:02:35;97279.97;;;26.88;42.23
41703;BME280;861;48.808;9.006;2023-07-13T10:05:13;97280.06;;;26.94;41.18
41703;BME280;861;48.808;9.006;2023-07-13T10:07:45;97293.59;;;27.01;39.71
41703;BME280;861;48.808;9.006;2023-07-13T10:10:23;97289.06;;;26.83;41.55
41703;BME280;861;48.808;9.006;2023-07-13T10:12:51;97281.03;;;26.91;41.20
41703;BME280;861;48.808;9.006;2023-07-13T10:15:23;97279.66;;;27.21;39.57
41703;BME280;861;48.808;9.006;2023-07-13T10:17:55;97282.19;;;26.64;40.56
41703;BME280;861;48.808;9.006;2023-07-13T10:20:25;97283.50;;;26.20;40.95
41703;BME280;861;48.808;9.006;2023-07-13T10:23:02;97287.44;;;26.13;42.47
41703;BME280;861;48.808;9.006;2023-07-13T10:25:43;97287.69;;;26.44;42.28
41703;BME280;861;48.808;9.006;2023-07-13T10:28:38;97290.09;;;26.37;41.00
41703;BME280;861;48.808;9.006;2023-07-13T10:31:15;97278.63;;;26.49;41.61
41703;BME280;861;48.808;9.006;2023-07-13T10:33:44;97282.72;;;26.19;43.59
41703;BME280;861;48.808;9.006;2023-07-13T10:36:34;97286.75;;;26.47;41.47
41703;BME280;861;48.808;9.006;2023-07-13T10:39:23;97283.53;;;26.69;41.66
41703;BME280;861;48.808;9.006;2023-07-13T10:42:11;97287.84;;;26.70;39.63
41703;BME280;861;48.808;9.006;2023-07-13T10:44:45;97278.50;;;26.73;39.48
41703;BME280;861;48.808;9.006;2023-07-13T10:47:17;97291.38;;;26.36;39.37
41703;BME280;861;48.808;9.006;2023-07-13T10:49:48;97287.97;;;25.74;41.94
41703;BME280;861;48.808;9.006;2023-07-13T10:52:45;97281.47;;;26.06;41.16
41703;BME280;861;48.808;9.006;2023-07-13T10:55:41;97282.13;;;26.79;42.20
41703;BME280;861;48.808;9.006;2023-07-13T11:01:18;97281.72;;;26.66;39.48
41703;BME280;861;48.808;9.006;2023-07-13T11:04:00;97282.16;;;26.15;41.62
41703;BME280;861;48.808;9.006;2023-07-13T11:06:38;97278.78;;;26.11;41.34
41703;BME280;861;48.808;9.006;2023-07-13T11:09:57;97270.13;;;26.09;41.36
41703;BME280;861;48.808;9.006;2023-07-13T11:12:26;97270.19;;;25.86;41.99
41703;BME280;861;48.808;9.006;2023-07-13T11:17:37;97266.41;;;25.59;43.93
41703;BME280;861;48.808;9.006;2023-07-13T11:22:51;97262.03;;;26.60;41.05
41703;BME280;861;48.808;9.006;2023-07-13T11:25:38;97275.78;;;26.98;39.84
41703;BME280;861;48.808;9.006;2023-07-13T11:31:03;97261.66;;;26.67;40.52
41703;BME280;861;48.808;9.006;2023-07-13T11:36:18;97261.91;;;27.04;39.75
41703;BME280;861;48.808;9.006;2023-07-13T11:39:04;97246.09;;;27.21;39.59
41703;BME280;861;48.808;9.006;2023-07-13T11:41:53;97245.13;;;27.04;40.01
41703;BME280;861;48.808;9.006;2023-07-13T11:44:27;97255.47;;;27.18;41.55
41703;BME280;861;48.808;9.006;2023-07-13T11:47:09;97240.94;;;27.85;39.60
41703;BME280;861;48.808;9.006;2023-07-13T11:49:53;97253.44;;;28.46;38.68
41703;BME280;861;48.808;9.006;2023-07-13T11:52:37;97250.91;;;28.85;38.65
41703;BME280;861;48.808;9.006;2023-07-13T11:55:17;97251.41;;;28.47;37.75
41703;BME280;861;48.808;9.006;2023-07-13T11:57:59;97251.91;;;28.88;37.22
41703;BME280;861;48.808;9.006;2023-07-13T12:00:32;97257.25;;;28.80;37.18
41703;BME280;861;48.808;9.006;2023-07-13T12:03:02;97257.50;;;28.45;37.09
41703;BME280;861;48.808;9.006;2023-07-13T12:05:31;97261.47;;;28.33;38.69
41703;BME280;861;48.808;9.006;2023-07-13T12:07:59;97253.97;;;28.19;37.26
41703;BME280;861;48.808;9.006;2023-07-13T12:10:37;97262.16;;;27.92;37.05
41703;BME280;861;48.808;9.006;2023-07-13T12:13:08;97265.69;;;28.18;37.38
41703;BME280;861;48.808;9.006;2023-07-13T12:15:47;97257.25;;;28.80;36.42
41703;BME280;861;48.808;9.006;2023-07-13T12:18:21;97259.50;;;28.39;36.56
41703;BME280;861;48.808;9.006;2023-07-13T12:20:51;97267.28;;;28.24;37.01
41703;BME280;861;48.808;9.006;2023-07-13T12:23:25;97267.47;;;27.90;37.48
41703;BME280;861;48.808;9.006;2023-07-13T12:26:05;97255.28;;;27.93;37.33
41703;BME280;861;48.808;9.006;2023-07-13T12:28:51;97252.88;;;28.06;38.72
41703;BME280;861;48.808;9.006;2023-07-13T12:31:44;97252.97;;;28.22;38.65
41703;BME280;861;48.808;9.006;2023-07-13T12:34:19;97257.56;;;28.51;37.33
41703;BME280;861;48.808;9.006;2023-07-13T12:36:58;97259.34;;;28.49;36.27
41703;BME280;861;48.808;9.006;2023-07-13T12:39:46;97257.38;;;28.29;36.11
41703;BME280;861;48.808;9.006;2023-07-13T12:42:32;97252.19;;;28.16;37.51
41703;BME280;861;48.808;9.006;2023-07-13T12:47:56;97248.44;;;27.94;36.68
41703;BME280;861;48.808;9.006;2023-07-13T12:50:39;97249.41;;;27.65;37.06
41703;BME280;861;48.808;9.006;2023-07-13T12:53:28;97243.97;;;27.82;36.13
41703;BME280;861;48.808;9.006;2023-07-13T12:56:03;97245.50;;;27.57;37.26
41703;BME280;861;48.808;9.006;2023-07-13T12:58:41;97253.31;;;27.73;38.67
41703;BME280;861;48.808;9.006;2023-07-13T13:01:12;97245.34;;;28.23;39.98
41703;BME280;861;48.808;9.006;2023-07-13T13:03:48;97240.69;;;28.82;36.75
41703;BME280;861;48.808;9.006;2023-07-13T13:06:28;97234.41;;;29.04;37.67
41703;BME280;861;48.808;9.006;2023-07-13T13:08:59;97243.22;;;29.28;35.82
41703;BME280;861;48.808;9.006;2023-07-13T13:11:30;97235.88;;;29.52;37.94
41703;BME280;861;48.808;9.006;2023-07-13T13:13:58;97238.72;;;29.63;35.92
41703;BME280;861;48.808;9.006;2023-07-13T13:16:54;97238.22;;;29.65;34.07
41703;BME280;861;48.808;9.006;2023-07-13T13:19:28;97241.03;;;29.70;35.08
41703;BME280;861;48.808;9.006;2023-07-13T13:21:57;97241.59;;;29.85;35.04
41703;BME280;861;48.808;9.006;2023-07-13T13:24:27;97236.47;;;30.01;35.96
41703;BME280;861;48.808;9.006;2023-07-13T13:26:56;97241.06;;;30.04;34.86
41703;BME280;861;48.808;9.006;2023-07-13T13:29:25;97243.63;;;30.07;36.36
41703;BME280;861;48.808;9.006;2023-07-13T13:31:54;97235.97;;;30.46;34.25
41703;BME280;861;48.808;9.006;2023-07-13T13:34:25;97244.38;;;30.57;34.09
41703;BME280;861;48.808;9.006;2023-07-13T13:36:55;97242.31;;;30.69;34.67
41703;BME280;861;48.808;9.006;2023-07-13T13:39:29;97250.50;;;30.78;34.30
41703;BME280;861;48.808;9.006;2023-07-13T13:42:02;97239.00;;;30.81;34.34
41703;BME280;861;48.808;9.006;2023-07-13T13:44:30;97235.19;;;30.79;33.64
41703;BME280;861;48.808;9.006;2023-07-13T13:46:58;97242.84;;;30.73;33.54
41703;BME280;861;48.808;9.006;2023-07-13T13:49:29;97231.78;;;30.97;35.07
41703;BME280;861;48.808;9.006;2023-07-13T13:51:57;97238.06;;;31.25;33.46
41703;BME280;861;48.808;9.006;2023-07-13T13:54:25;97238.56;;;31.29;33.31
41703;BME280;861;48.808;9.006;2023-07-13T13:56:53;97237.56;;;31.32;33.46
41703;BME280;861;48.808;9.006;2023-07-13T13:59:20;97242.03;;;30.94;33.96
41703;BME280;861;48.808;9.006;2023-07-13T14:01:49;97228.47;;;30.98;34.29
41703;BME280;861;48.808;9.006;2023-07-13T14:04:20;97243.03;;;30.97;34.61
41703;BME280;861;48.808;9.006;2023-07-13T14:06:48;97237.38;;;31.08;34.76
41703;BME280;861;48.808;9.006;2023-07-13T14:09:18;97237.53;;;31.26;32.94
41703;BME280;861;48.808;9.006;2023-07-13T14:11:48;97232.25;;;31.12;33.67
41703;BME280;861;48.808;9.006;2023-07-13T14:14:25;97238.03;;;31.36;32.97
41703;BME280;861;48.808;9.006;2023-07-13T14:16:53;97242.63;;;31.45;32.47
41703;BME280;861;48.808;9.006;2023-07-13T14:19:23;97243.19;;;31.32;32.33
41703;BME280;861;48.808;9.006;2023-07-13T14:21:50;97239.97;;;31.00;32.90
41703;BME280;861;48.808;9.006;2023-07-13T14:24:19;97234.38;;;30.89;32.56